This is the latest recevied weather packets stored in our database for station/object WC4PEM-11. If no packets are shown the sender has not sent any weather packets the latest 10 day(s).
| Time | Temp. | Humidity | Pressure | Rain* | Wind** | Luminosity | Snow |
|---|---|---|---|---|---|---|---|
| 1777474100 | 26.67° C | 70% | 1018 hPa | 0 mm | - | - | - |
| 1777473800 | 26.67° C | 72% | 1018 hPa | 0 mm | - | - | - |
| 1777473500 | 26.11° C | 72% | 1018.1 hPa | 0 mm | - | - | - |
| 1777473200 | 25.56° C | 73% | 1018.1 hPa | 0 mm | - | - | - |
| 1777473043 | 25.56° C | 74% | 1018 hPa | 0 mm | - | - | - |
| 1777472900 | 25.56° C | 74% | 1018 hPa | 0 mm | - | - | - |
| 1777472600 | 25.56° C | 75% | 1018 hPa | 0 mm | - | - | - |
| 1777472300 | 25.56° C | 76% | 1018.3 hPa | 0 mm | - | - | - |
| 1777472000 | 25° C | 76% | 1018.3 hPa | 0 mm | - | - | - |
| 1777471700 | 25° C | 78% | 1018.2 hPa | 0 mm | - | - | - |
| 1777471488 | 23.33° C | 84% | 1018 hPa | 0 mm | - | - | - |
| 1777471400 | 24.44° C | 79% | 1018.2 hPa | 0 mm | - | - | - |
| 1777471100 | 23.89° C | 83% | 1018.1 hPa | 0 mm | - | - | - |
| 1777470800 | 23.33° C | 84% | 1018 hPa | 0 mm | - | - | - |
| 1777470791 | 22.22° C | 90% | 1017.8 hPa | 0 mm | - | - | - |
| 1777470500 | 23.33° C | 84% | 1017.9 hPa | 0 mm | - | - | - |
| 1777470200 | 22.78° C | 86% | 1017.8 hPa | 0 mm | - | - | - |
| 1777469900 | 22.78° C | 86% | 1017.7 hPa | 0 mm | - | - | - |
| 1777469600 | 22.22° C | 88% | 1017.7 hPa | 0 mm | - | - | - |
| 1777469300 | 22.22° C | 90% | 1017.8 hPa | 0 mm | - | - | - |
| 1777469000 | 21.67° C | 92% | 1017.9 hPa | 0 mm | - | - | - |
| 1777468700 | 21.67° C | 93% | 1017.7 hPa | 0 mm | - | - | - |
| 1777468477 | 20.56° C | 96% | 1017.7 hPa | 0 mm | - | - | - |
| 1777468400 | 21.67° C | 95% | 1017.8 hPa | 0 mm | - | - | - |
| 1777468100 | 21.11° C | 96% | 1017.8 hPa | 0 mm | - | - | - |
* Rain latest hour (hover to see other rain measurements)
** Current wind speed in m/s (hover to see current wind gust speed)